createdAt,value
2023-10-31T00:01:24.574Z,12.30
2023-10-31T00:03:52.461Z,12.20
2023-10-31T00:06:20.413Z,12.30
2023-10-31T00:08:48.322Z,12.30
2023-10-31T00:11:16.145Z,12.30
2023-10-31T00:13:44.357Z,12.30
2023-10-31T00:16:13.521Z,12.30
2023-10-31T00:18:41.369Z,12.30
2023-10-31T00:21:09.648Z,12.30
2023-10-31T00:23:45.456Z,12.30
2023-10-31T00:26:13.634Z,12.30
2023-10-31T00:28:46.360Z,12.40
2023-10-31T00:31:15.619Z,12.30
2023-10-31T00:33:43.592Z,12.30
2023-10-31T00:36:11.659Z,12.40
2023-10-31T00:38:39.523Z,12.30
2023-10-31T00:41:07.397Z,12.30
2023-10-31T00:43:36.000Z,12.30
2023-10-31T00:46:05.630Z,12.30
2023-10-31T00:48:37.360Z,12.30
2023-10-31T00:51:05.542Z,12.30
2023-10-31T00:53:34.838Z,12.20
2023-10-31T00:56:03.416Z,12.20
2023-10-31T00:58:34.470Z,12.20
2023-10-31T01:01:02.328Z,12.20
2023-10-31T01:03:30.585Z,12.30
2023-10-31T01:05:59.764Z,12.30
2023-10-31T01:08:28.079Z,12.30
2023-10-31T01:10:55.849Z,12.30
2023-10-31T01:13:23.610Z,12.40
2023-10-31T01:15:51.385Z,12.50
2023-10-31T01:18:19.201Z,12.50
2023-10-31T01:20:46.997Z,12.50
2023-10-31T01:23:16.074Z,12.50
2023-10-31T01:25:44.006Z,12.50
2023-10-31T01:28:13.122Z,12.40
2023-10-31T01:30:40.888Z,12.30
2023-10-31T01:33:08.971Z,12.30
2023-10-31T01:35:37.069Z,12.30
2023-10-31T01:38:05.432Z,12.30
2023-10-31T01:40:34.816Z,12.20
2023-10-31T01:43:02.641Z,12.20
2023-10-31T01:45:30.779Z,12.10
2023-10-31T01:47:59.446Z,12.10
2023-10-31T01:50:27.570Z,12.10
2023-10-31T01:52:55.517Z,12.10
2023-10-31T01:55:28.382Z,12.00
2023-10-31T01:57:57.424Z,11.90
2023-10-31T02:00:25.344Z,11.80
2023-10-31T02:02:55.419Z,11.80
2023-10-31T02:05:23.323Z,11.80
2023-10-31T02:07:51.281Z,11.80
2023-10-31T02:10:19.094Z,11.80
2023-10-31T02:12:46.848Z,11.70
2023-10-31T02:15:16.212Z,11.60
2023-10-31T02:17:44.006Z,11.70
2023-10-31T02:20:12.577Z,11.70
2023-10-31T02:22:41.823Z,11.70
2023-10-31T02:25:18.909Z,11.70
2023-10-31T02:27:47.120Z,11.80
2023-10-31T02:30:16.478Z,11.90
2023-10-31T02:32:44.764Z,11.90
2023-10-31T02:35:12.592Z,12.00
2023-10-31T02:37:42.145Z,12.00
2023-10-31T02:40:11.035Z,12.10
2023-10-31T02:42:39.136Z,12.10
2023-10-31T02:45:08.791Z,12.10
2023-10-31T02:47:37.062Z,12.10
2023-10-31T02:50:05.134Z,12.10
2023-10-31T02:52:32.898Z,12.10
2023-10-31T02:55:01.993Z,12.10
2023-10-31T02:57:30.053Z,12.10
2023-10-31T02:59:57.884Z,12.10
2023-10-31T03:02:26.133Z,12.10
2023-10-31T03:04:54.466Z,12.20
2023-10-31T03:07:22.242Z,12.20
2023-10-31T03:09:50.870Z,12.10
2023-10-31T03:12:20.060Z,12.10
2023-10-31T03:14:48.005Z,12.10
2023-10-31T03:17:15.915Z,12.20
2023-10-31T03:19:43.960Z,12.20
2023-10-31T03:22:11.840Z,12.20
2023-10-31T03:24:39.743Z,12.30
2023-10-31T03:27:07.795Z,12.20
2023-10-31T03:29:39.872Z,12.20
2023-10-31T03:32:09.695Z,12.20
2023-10-31T03:34:38.354Z,12.20
2023-10-31T03:37:06.436Z,12.20
2023-10-31T03:39:34.311Z,12.20
2023-10-31T03:42:02.246Z,12.20
2023-10-31T03:44:29.958Z,12.20
2023-10-31T03:46:59.239Z,12.20
2023-10-31T03:49:27.069Z,12.10
2023-10-31T03:51:55.041Z,12.10
2023-10-31T03:54:23.379Z,12.10
2023-10-31T03:56:51.113Z,12.00
2023-10-31T03:59:18.985Z,11.90
2023-10-31T04:01:46.864Z,11.90
2023-10-31T04:04:17.092Z,11.90
2023-10-31T04:06:45.208Z,11.90
2023-10-31T04:09:13.155Z,11.70
2023-10-31T04:11:42.313Z,11.60
2023-10-31T04:14:10.325Z,11.60
2023-10-31T04:16:42.304Z,11.60
2023-10-31T04:19:10.310Z,11.60
2023-10-31T04:21:39.433Z,11.50
2023-10-31T04:24:08.006Z,11.50
2023-10-31T04:26:35.669Z,11.50
2023-10-31T04:29:03.501Z,11.60
2023-10-31T04:31:38.942Z,11.60
2023-10-31T04:34:11.894Z,11.60
2023-10-31T04:36:41.174Z,11.60
2023-10-31T04:39:09.363Z,11.60
2023-10-31T04:41:37.195Z,11.70
2023-10-31T04:44:05.188Z,11.70
2023-10-31T04:46:33.075Z,11.60
2023-10-31T04:49:00.898Z,11.60
2023-10-31T04:51:28.768Z,11.70
2023-10-31T04:53:57.776Z,11.70
2023-10-31T04:56:25.482Z,11.60
2023-10-31T04:58:53.219Z,11.60
2023-10-31T05:01:21.219Z,11.60
2023-10-31T05:03:54.318Z,11.60
2023-10-31T05:06:26.678Z,11.60
2023-10-31T05:08:54.363Z,11.60
2023-10-31T05:11:23.948Z,11.60
2023-10-31T05:13:52.608Z,11.60
2023-10-31T05:16:20.650Z,11.60
2023-10-31T05:18:48.433Z,11.70
2023-10-31T05:21:21.406Z,11.70
2023-10-31T05:23:49.120Z,11.80
2023-10-31T05:26:17.450Z,11.80
2023-10-31T05:28:46.706Z,11.80
2023-10-31T05:31:18.412Z,11.80
2023-10-31T05:33:46.312Z,11.80
2023-10-31T05:36:21.051Z,11.90
2023-10-31T05:38:49.139Z,12.00
2023-10-31T05:41:17.298Z,11.90
2023-10-31T05:43:46.545Z,11.90
2023-10-31T05:46:15.535Z,11.90
2023-10-31T05:48:45.359Z,12.00
2023-10-31T05:51:15.571Z,11.90
2023-10-31T05:53:44.986Z,11.90
2023-10-31T05:56:14.250Z,11.80
2023-10-31T05:58:42.842Z,11.90
2023-10-31T06:01:12.407Z,11.90
2023-10-31T06:03:44.306Z,11.90
2023-10-31T06:06:13.370Z,11.90
2023-10-31T06:08:42.037Z,11.90
2023-10-31T06:11:09.947Z,11.70
2023-10-31T06:13:37.753Z,11.70
2023-10-31T06:16:07.074Z,11.60
2023-10-31T06:18:36.586Z,11.60
2023-10-31T06:21:04.766Z,11.60
2023-10-31T06:23:33.302Z,11.70
2023-10-31T06:26:01.193Z,11.60
2023-10-31T06:28:29.027Z,11.60
2023-10-31T06:30:57.019Z,11.60
2023-10-31T06:33:25.072Z,11.70
2023-10-31T06:35:54.781Z,11.70
2023-10-31T06:38:22.710Z,11.60
2023-10-31T06:40:51.050Z,11.50
2023-10-31T06:43:18.943Z,11.50
2023-10-31T06:45:46.953Z,11.40
2023-10-31T06:48:14.778Z,11.30
2023-10-31T06:50:42.652Z,11.30
2023-10-31T06:53:12.146Z,11.30
2023-10-31T06:55:40.021Z,11.30
2023-10-31T06:58:07.813Z,11.30
2023-10-31T07:00:35.736Z,11.30
2023-10-31T07:03:07.669Z,11.40
2023-10-31T07:05:35.809Z,11.40
2023-10-31T07:08:04.307Z,11.50
2023-10-31T07:10:34.194Z,11.50
2023-10-31T07:13:02.279Z,11.60
2023-10-31T07:15:30.229Z,11.50
2023-10-31T07:17:58.331Z,11.60
2023-10-31T07:20:26.272Z,11.70
2023-10-31T07:22:54.160Z,11.70
2023-10-31T07:25:21.967Z,11.80
2023-10-31T07:27:51.383Z,11.90
2023-10-31T07:30:19.312Z,11.90
2023-10-31T07:32:47.447Z,12.00
2023-10-31T07:35:15.385Z,12.00
2023-10-31T07:37:43.306Z,12.10
2023-10-31T07:40:12.186Z,12.10
2023-10-31T07:42:40.011Z,12.20
2023-10-31T07:45:09.957Z,12.20
2023-10-31T07:47:38.122Z,12.30
2023-10-31T07:50:06.601Z,12.40
2023-10-31T07:52:34.449Z,12.40
2023-10-31T07:55:02.402Z,12.50
2023-10-31T07:57:30.192Z,12.60
2023-10-31T07:59:58.133Z,12.70
2023-10-31T08:02:27.549Z,12.70
2023-10-31T08:04:55.375Z,12.80
2023-10-31T08:07:24.546Z,12.80
2023-10-31T08:09:52.365Z,12.80
2023-10-31T08:12:23.259Z,12.80
2023-10-31T08:14:51.108Z,12.90
2023-10-31T08:17:19.189Z,12.90
2023-10-31T08:19:48.942Z,13.00
2023-10-31T08:22:17.603Z,13.10
2023-10-31T08:24:45.450Z,13.20
2023-10-31T08:27:13.724Z,13.20
2023-10-31T08:29:41.887Z,13.10
2023-10-31T08:32:09.870Z,13.10
2023-10-31T08:34:38.158Z,12.90
2023-10-31T08:37:07.371Z,12.80
2023-10-31T08:39:35.314Z,12.90
2023-10-31T08:42:03.178Z,13.00
2023-10-31T08:44:31.294Z,13.10
2023-10-31T08:46:59.555Z,13.20
2023-10-31T08:49:29.089Z,13.50
2023-10-31T08:51:58.484Z,13.70
2023-10-31T08:54:27.907Z,13.90
2023-10-31T08:56:55.719Z,14.10
2023-10-31T08:59:23.530Z,14.30
2023-10-31T09:01:51.506Z,14.30
2023-10-31T09:04:19.665Z,14.20
2023-10-31T09:06:50.466Z,14.20
2023-10-31T09:09:19.898Z,14.30
2023-10-31T09:11:54.551Z,14.30
2023-10-31T09:14:23.204Z,14.00
2023-10-31T09:16:51.652Z,13.70
2023-10-31T09:19:20.588Z,13.50
2023-10-31T09:21:48.907Z,13.30
2023-10-31T09:24:17.119Z,13.30
2023-10-31T09:26:45.426Z,13.30
2023-10-31T09:29:25.618Z,13.20
2023-10-31T09:31:59.914Z,13.30
2023-10-31T09:34:29.264Z,13.50
2023-10-31T09:36:58.396Z,13.40
2023-10-31T09:39:29.067Z,13.30
2023-10-31T09:41:59.840Z,13.50
2023-10-31T09:44:30.126Z,13.50
2023-10-31T09:47:00.306Z,13.80
2023-10-31T09:49:29.876Z,14.10
2023-10-31T09:51:57.904Z,14.70
2023-10-31T09:54:28.073Z,15.30
2023-10-31T09:56:56.395Z,15.60
2023-10-31T09:59:24.276Z,16.60
2023-10-31T10:01:57.633Z,17.50
2023-10-31T10:04:26.398Z,17.80
2023-10-31T10:07:00.661Z,17.40
2023-10-31T10:09:29.532Z,17.00
2023-10-31T10:11:57.987Z,16.90
2023-10-31T10:14:27.525Z,16.70
2023-10-31T10:16:56.894Z,16.60
2023-10-31T10:19:25.633Z,17.00
2023-10-31T10:21:55.267Z,16.80
2023-10-31T10:24:24.845Z,16.90
2023-10-31T10:26:53.576Z,17.40
2023-10-31T10:29:22.317Z,17.70
2023-10-31T10:31:50.978Z,17.80
2023-10-31T10:34:24.274Z,18.30
2023-10-31T10:36:58.320Z,18.30
2023-10-31T10:39:29.171Z,19.10
2023-10-31T10:41:58.820Z,19.70
2023-10-31T10:44:34.574Z,19.40
2023-10-31T10:47:05.979Z,19.80
2023-10-31T10:49:41.284Z,19.60
2023-10-31T10:52:19.831Z,19.40
2023-10-31T10:55:08.588Z,19.50
2023-10-31T10:57:41.619Z,20.10
2023-10-31T11:00:13.797Z,20.80
2023-10-31T11:02:43.847Z,21.30
2023-10-31T11:05:14.293Z,21.60
2023-10-31T11:07:42.618Z,21.20
2023-10-31T11:10:11.385Z,21.00
2023-10-31T11:12:40.518Z,19.50
2023-10-31T11:15:10.628Z,19.40
2023-10-31T11:17:41.837Z,19.10
2023-10-31T11:20:15.451Z,18.50
2023-10-31T11:22:46.278Z,17.60
2023-10-31T11:25:22.869Z,17.20
2023-10-31T11:28:12.077Z,17.00
2023-10-31T11:30:39.990Z,17.00
2023-10-31T11:33:07.898Z,16.90
2023-10-31T11:35:40.562Z,16.80
2023-10-31T11:38:09.956Z,16.90
2023-10-31T11:40:39.102Z,17.20
2023-10-31T11:43:09.427Z,17.20
2023-10-31T11:45:39.114Z,17.30
2023-10-31T11:48:07.298Z,17.20
2023-10-31T11:50:37.637Z,17.00
2023-10-31T11:53:08.080Z,16.80
2023-10-31T11:55:38.693Z,16.80
2023-10-31T11:58:17.911Z,16.80
2023-10-31T12:00:46.769Z,16.90
2023-10-31T12:03:15.093Z,16.80
2023-10-31T12:05:53.231Z,16.60
2023-10-31T12:08:28.085Z,16.50
2023-10-31T12:11:05.767Z,16.30
2023-10-31T12:13:33.770Z,16.20
2023-10-31T12:16:02.700Z,15.90
2023-10-31T12:18:30.937Z,15.70
2023-10-31T12:21:00.301Z,15.60
2023-10-31T12:23:28.481Z,15.70
2023-10-31T12:25:56.466Z,16.00
2023-10-31T12:28:26.004Z,16.00
2023-10-31T12:30:55.694Z,16.00
2023-10-31T12:33:25.957Z,16.30
2023-10-31T12:35:58.165Z,16.50
2023-10-31T12:38:27.873Z,16.60
2023-10-31T12:40:57.491Z,16.50
2023-10-31T12:43:26.385Z,16.40
2023-10-31T12:45:54.716Z,16.20
2023-10-31T12:48:26.819Z,16.40
2023-10-31T12:51:09.703Z,16.50
2023-10-31T12:53:39.105Z,16.40
2023-10-31T12:56:07.534Z,16.30
2023-10-31T12:58:35.440Z,16.30
2023-10-31T13:01:03.449Z,16.30
2023-10-31T13:03:31.568Z,16.10
2023-10-31T13:06:01.194Z,16.10
2023-10-31T13:08:31.963Z,16.10
2023-10-31T13:11:02.944Z,16.00
2023-10-31T13:13:32.496Z,16.00
2023-10-31T13:16:00.640Z,15.90
2023-10-31T13:18:29.729Z,15.60
2023-10-31T13:21:02.179Z,15.60
2023-10-31T13:23:31.374Z,15.40
2023-10-31T13:26:04.084Z,14.70
2023-10-31T13:28:33.504Z,14.50
2023-10-31T13:31:03.961Z,14.60
2023-10-31T13:33:33.137Z,14.60
2023-10-31T13:36:01.749Z,14.50
2023-10-31T13:38:29.693Z,14.40
2023-10-31T13:40:57.538Z,14.50
2023-10-31T13:43:26.765Z,14.70
2023-10-31T13:45:54.662Z,14.90
2023-10-31T13:48:22.474Z,15.00
2023-10-31T13:50:50.767Z,15.10
2023-10-31T13:53:19.476Z,15.10
2023-10-31T13:55:47.545Z,15.00
2023-10-31T13:58:15.296Z,15.00
2023-10-31T14:00:45.627Z,15.10
2023-10-31T14:03:13.639Z,15.10
2023-10-31T14:05:43.080Z,15.30
2023-10-31T14:08:11.603Z,15.50
2023-10-31T14:10:39.489Z,15.50
2023-10-31T14:13:07.418Z,15.50
2023-10-31T14:15:35.190Z,15.40
2023-10-31T14:18:04.531Z,15.20
2023-10-31T14:20:32.525Z,15.10
2023-10-31T14:23:00.443Z,15.00
2023-10-31T14:25:28.407Z,15.00
2023-10-31T14:27:56.593Z,15.00
2023-10-31T14:30:24.468Z,14.90
2023-10-31T14:32:52.276Z,14.80
2023-10-31T14:35:21.560Z,14.80
2023-10-31T14:37:50.277Z,14.50
2023-10-31T14:40:18.770Z,14.40
2023-10-31T14:42:47.439Z,14.40
2023-10-31T14:45:15.230Z,14.20
2023-10-31T14:47:43.075Z,14.10
2023-10-31T14:50:11.440Z,14.10
2023-10-31T14:52:41.795Z,14.00
2023-10-31T14:55:10.531Z,13.80
2023-10-31T14:57:38.363Z,13.80
2023-10-31T15:00:08.034Z,13.80
2023-10-31T15:02:36.277Z,13.70
2023-10-31T15:05:04.951Z,13.80
2023-10-31T15:07:32.822Z,13.70
2023-10-31T15:10:03.761Z,13.80
2023-10-31T15:12:31.595Z,13.90
2023-10-31T15:14:59.490Z,13.90
2023-10-31T15:17:27.474Z,14.00
2023-10-31T15:19:55.301Z,14.00
2023-10-31T15:22:23.206Z,14.00
2023-10-31T15:24:51.518Z,13.90
2023-10-31T15:27:20.750Z,13.80
2023-10-31T15:29:48.675Z,13.70
2023-10-31T15:32:16.671Z,13.80
2023-10-31T15:34:44.807Z,13.80
2023-10-31T15:37:13.120Z,13.90
2023-10-31T15:39:41.731Z,13.80
2023-10-31T15:42:09.679Z,13.80
2023-10-31T15:44:39.630Z,13.90
2023-10-31T15:47:08.025Z,13.90
2023-10-31T15:49:37.265Z,14.00
2023-10-31T15:52:05.471Z,13.80
2023-10-31T15:54:33.686Z,13.60
2023-10-31T15:57:01.511Z,13.70
2023-10-31T15:59:29.509Z,13.60
2023-10-31T16:01:58.722Z,13.60
2023-10-31T16:04:28.167Z,13.40
2023-10-31T16:06:57.005Z,13.30
2023-10-31T16:09:24.845Z,13.30
2023-10-31T16:11:52.671Z,13.30
2023-10-31T16:14:23.041Z,13.30
2023-10-31T16:16:51.345Z,13.30
2023-10-31T16:19:20.690Z,13.30
2023-10-31T16:21:49.771Z,13.20
2023-10-31T16:24:19.182Z,13.10
2023-10-31T16:26:46.955Z,13.10
2023-10-31T16:29:16.372Z,13.10
2023-10-31T16:31:45.598Z,13.10
2023-10-31T16:34:13.761Z,13.20
2023-10-31T16:36:42.850Z,13.20
2023-10-31T16:39:11.743Z,13.20
2023-10-31T16:41:39.584Z,13.20
2023-10-31T16:44:07.747Z,13.20
2023-10-31T16:46:35.537Z,13.30
2023-10-31T16:49:03.321Z,13.20
2023-10-31T16:51:31.440Z,13.20
2023-10-31T16:54:00.545Z,13.20
2023-10-31T16:56:28.869Z,13.20
2023-10-31T16:58:56.819Z,13.20
2023-10-31T17:01:24.686Z,13.20
2023-10-31T17:03:52.591Z,13.10
2023-10-31T17:06:21.933Z,13.20
2023-10-31T17:08:49.727Z,13.10
2023-10-31T17:11:20.552Z,13.20
2023-10-31T17:13:48.920Z,13.20
2023-10-31T17:16:16.986Z,13.20
2023-10-31T17:18:44.791Z,13.30
2023-10-31T17:21:12.575Z,13.20
2023-10-31T17:23:40.797Z,13.10
2023-10-31T17:26:08.529Z,13.10
2023-10-31T17:28:39.746Z,13.10
2023-10-31T17:31:08.385Z,13.00
2023-10-31T17:33:36.432Z,13.00
2023-10-31T17:36:04.911Z,13.00
2023-10-31T17:38:32.763Z,13.00
2023-10-31T17:41:00.567Z,13.00
2023-10-31T17:43:28.304Z,13.00
2023-10-31T17:45:57.323Z,12.90
2023-10-31T17:48:25.289Z,12.90
2023-10-31T17:50:53.051Z,12.90
2023-10-31T17:53:20.829Z,12.90
2023-10-31T17:55:48.602Z,12.90
2023-10-31T17:58:17.529Z,12.90
2023-10-31T18:00:45.397Z,12.90
2023-10-31T18:03:14.677Z,13.00
2023-10-31T18:05:42.501Z,13.00
2023-10-31T18:08:10.434Z,13.00
2023-10-31T18:10:38.218Z,13.10
2023-10-31T18:13:12.975Z,13.10
2023-10-31T18:15:41.378Z,13.10
2023-10-31T18:18:10.130Z,13.10
2023-10-31T18:20:39.236Z,13.10
2023-10-31T18:23:06.979Z,13.20
2023-10-31T18:25:34.762Z,13.20
2023-10-31T18:28:02.575Z,13.20
2023-10-31T18:30:30.447Z,13.30
2023-10-31T18:33:03.675Z,13.30
2023-10-31T18:35:32.135Z,13.30
2023-10-31T18:38:01.260Z,13.30
2023-10-31T18:40:28.939Z,13.30
2023-10-31T18:42:57.224Z,13.40
2023-10-31T18:45:25.127Z,13.50
2023-10-31T18:47:52.878Z,13.40
2023-10-31T18:50:21.783Z,13.50
2023-10-31T18:52:49.651Z,13.50
2023-10-31T18:55:19.844Z,13.50
2023-10-31T18:57:47.579Z,13.50
2023-10-31T19:00:15.969Z,13.40
2023-10-31T19:02:43.803Z,13.40
2023-10-31T19:05:11.633Z,13.50
2023-10-31T19:07:40.248Z,13.50
2023-10-31T19:10:10.689Z,13.50
2023-10-31T19:12:39.885Z,13.50
2023-10-31T19:15:08.368Z,13.50
2023-10-31T19:17:36.168Z,13.50
2023-10-31T19:20:04.357Z,13.50
2023-10-31T19:22:32.041Z,13.50
2023-10-31T19:24:59.726Z,13.50
2023-10-31T19:27:27.377Z,13.50
2023-10-31T19:29:58.289Z,13.50
2023-10-31T19:32:26.090Z,13.50
2023-10-31T19:34:53.961Z,13.50
2023-10-31T19:37:21.702Z,13.60
2023-10-31T19:39:49.483Z,13.60
2023-10-31T19:42:17.175Z,13.70
2023-10-31T19:44:44.914Z,13.60
2023-10-31T19:47:13.969Z,13.70
2023-10-31T19:49:41.785Z,13.70
2023-10-31T19:52:09.509Z,13.70
2023-10-31T19:54:37.164Z,13.70
2023-10-31T19:57:05.227Z,13.70
2023-10-31T19:59:32.963Z,13.70
2023-10-31T20:02:03.018Z,13.60
2023-10-31T20:04:32.090Z,13.60
2023-10-31T20:06:59.765Z,13.60
2023-10-31T20:09:27.505Z,13.60
2023-10-31T20:11:56.250Z,13.50
2023-10-31T20:14:24.026Z,13.50
2023-10-31T20:16:51.962Z,13.50
2023-10-31T20:19:19.824Z,13.40
2023-10-31T20:21:49.240Z,13.30
2023-10-31T20:24:17.000Z,13.30
2023-10-31T20:26:44.701Z,13.30
2023-10-31T20:29:14.857Z,13.30
2023-10-31T20:31:45.093Z,13.30
2023-10-31T20:34:12.906Z,13.30
2023-10-31T20:36:42.713Z,13.30
2023-10-31T20:39:12.464Z,13.30
2023-10-31T20:41:40.175Z,13.30
2023-10-31T20:44:07.902Z,13.30
2023-10-31T20:46:35.664Z,13.30
2023-10-31T20:49:07.106Z,13.20
2023-10-31T20:51:35.066Z,13.20
2023-10-31T20:54:02.907Z,13.20
2023-10-31T20:56:32.059Z,13.20
2023-10-31T20:59:00.861Z,13.20
2023-10-31T21:01:28.853Z,13.20
2023-10-31T21:03:56.611Z,13.20
2023-10-31T21:06:25.882Z,13.20
2023-10-31T21:08:53.605Z,13.20
2023-10-31T21:11:22.883Z,13.20
2023-10-31T21:13:52.129Z,13.20
2023-10-31T21:16:19.857Z,13.30
2023-10-31T21:18:47.545Z,13.30
2023-10-31T21:21:15.287Z,13.30
2023-10-31T21:23:42.976Z,13.20
2023-10-31T21:26:10.945Z,13.20
2023-10-31T21:28:38.627Z,13.30
2023-10-31T21:31:07.742Z,13.30
2023-10-31T21:33:35.451Z,13.30
2023-10-31T21:36:03.223Z,13.30
2023-10-31T21:38:30.904Z,13.30
2023-10-31T21:40:58.586Z,13.30
2023-10-31T21:43:26.475Z,13.30
2023-10-31T21:45:57.362Z,13.30
2023-10-31T21:48:26.490Z,13.30
2023-10-31T21:50:55.856Z,13.20
2023-10-31T21:53:24.176Z,13.20
2023-10-31T21:55:51.987Z,13.10
2023-10-31T21:58:19.670Z,13.00
2023-10-31T22:00:47.466Z,13.00
2023-10-31T22:03:15.382Z,13.00
2023-10-31T22:05:44.861Z,13.00
2023-10-31T22:08:12.557Z,13.10
2023-10-31T22:10:40.250Z,13.10
2023-10-31T22:13:07.922Z,13.10
2023-10-31T22:15:35.866Z,13.10
2023-10-31T22:18:03.840Z,13.10
2023-10-31T22:20:31.944Z,13.00
2023-10-31T22:23:01.079Z,13.10
2023-10-31T22:25:28.854Z,13.10
2023-10-31T22:27:56.527Z,13.10
2023-10-31T22:30:25.998Z,13.10
2023-10-31T22:32:53.801Z,13.10
2023-10-31T22:35:21.620Z,13.00
2023-10-31T22:37:49.396Z,12.90
2023-10-31T22:40:18.514Z,12.90
2023-10-31T22:42:46.227Z,12.90
2023-10-31T22:45:14.186Z,12.80
2023-10-31T22:47:42.229Z,12.80
2023-10-31T22:50:11.192Z,12.90
2023-10-31T22:52:39.334Z,12.90
2023-10-31T22:55:08.347Z,13.00
2023-10-31T22:57:37.404Z,13.00
2023-10-31T23:00:09.623Z,13.10
2023-10-31T23:02:37.501Z,13.20
2023-10-31T23:05:07.594Z,13.20
2023-10-31T23:07:35.397Z,13.20
2023-10-31T23:10:05.643Z,13.10
2023-10-31T23:12:34.212Z,13.00
2023-10-31T23:15:03.812Z,13.00
2023-10-31T23:17:31.512Z,12.90
2023-10-31T23:19:59.289Z,12.90
2023-10-31T23:22:27.462Z,12.80
2023-10-31T23:24:55.116Z,12.70
2023-10-31T23:27:22.800Z,12.70
2023-10-31T23:29:50.585Z,12.70
2023-10-31T23:32:19.743Z,12.70
2023-10-31T23:34:47.471Z,12.70
2023-10-31T23:37:15.135Z,12.70
2023-10-31T23:39:43.009Z,12.70
2023-10-31T23:42:10.816Z,12.60
2023-10-31T23:44:38.541Z,12.60
2023-10-31T23:47:06.947Z,12.70
2023-10-31T23:49:35.992Z,12.70
2023-10-31T23:52:03.690Z,12.70
2023-10-31T23:54:31.358Z,12.70
2023-10-31T23:56:59.061Z,12.70
2023-10-31T23:59:26.945Z,12.70
